Time;durP1;ratioP1;P1;durP2;ratioP2;P2;SDS_P1;SDS_P2;PMS_P1;PMS_P2;Temp;Humidity;BMP_temperature;BMP_pressure;BME280_temperature;BME280_humidity;BME280_pressure;Samples;Min_cycle;Max_cycle;Signal;HPM_P1;HPM_P2
2023/09/02 00:00:07;;;;;;;;;;;22.50;99.90;22.60;99510.00;;;;337684;28;95914;-92
2023/09/02 00:00:19;;;;;;;;;;;22.50;99.90;22.50;99512.00;;;;337506;28;91173;-93
2023/09/02 00:00:31;;;;;;;;;;;22.50;99.90;22.40;99508.00;;;;335227;29;94911;-93
2023/09/02 00:00:43;;;;;;;;;;;22.50;99.90;22.40;99510.00;;;;334780;29;92054;-93
2023/09/02 00:00:56;;;;;;;;;;;22.50;99.90;22.40;99512.00;;;;335165;29;95272;-93
2023/09/02 00:01:08;;;;;;;;;;;22.50;99.90;22.40;99511.00;;;;337474;28;92007;-91
2023/09/02 00:01:19;;;;;;;;;;;22.50;99.90;22.50;99513.00;;;;336401;28;95956;-93
2023/09/02 00:01:31;;;;;;;;;;;22.50;99.90;22.60;99514.00;;;;336217;28;92020;-93
2023/09/02 00:01:43;;;;;;;;;;;22.50;99.90;22.40;99518.00;;;;337630;28;96576;-92
2023/09/02 00:01:55;;;;;;;;;;;22.50;99.90;22.40;99513.00;;;;337524;28;91158;-93
2023/09/02 00:02:07;;;;;;;;;;;22.50;99.90;22.30;99512.00;;;;337720;28;93420;-93
2023/09/02 00:02:19;;;;;;;;;;;22.50;99.90;22.30;99509.00;;;;338807;28;91272;-92
2023/09/02 00:02:31;;;;;;;;;;;22.50;99.90;22.50;99518.00;;;;340484;28;93431;-93
2023/09/02 00:02:43;;;;;;;;;;;22.50;99.90;22.50;99519.00;;;;337455;28;92008;-92
2023/09/02 00:02:55;;;;;;;;;;;22.50;99.90;22.50;99512.00;;;;336556;28;94239;-93
2023/09/02 00:03:07;;;;;;;;;;;22.40;99.90;22.60;99502.00;;;;338957;28;91960;-92
2023/09/02 00:03:19;;;;;;;;;;;22.50;99.90;22.60;99511.00;;;;337744;28;94567;-92
2023/09/02 00:03:34;;;;;;;;;;;22.50;99.90;22.60;99505.00;;;;337503;28;91955;-92
2023/09/02 00:03:46;;;;;;;;;;;22.50;99.90;22.60;99507.00;;;;338861;28;94566;-94
2023/09/02 00:03:58;;;;;;;;;;;22.50;99.90;22.50;99513.00;;;;338837;28;91040;-93
2023/09/02 00:04:10;;;;;;;;;;;22.50;99.90;22.50;99519.00;;;;336403;28;94858;-92
2023/09/02 00:04:22;;;;;;;;;;;22.50;99.90;22.60;99515.00;;;;338813;28;91233;-93
2023/09/02 00:04:34;;;;;;;;;;;22.50;99.90;22.60;99515.00;;;;335216;29;94127;-93
2023/09/02 00:04:45;;;;;;;;;;;22.50;99.90;22.60;99516.00;;;;334790;29;91935;-93
2023/09/02 00:04:57;;;;;;;;;;;22.50;99.90;22.60;99511.00;;;;339158;28;95223;-92
2023/09/02 00:05:09;;;;;;;;;;;22.50;99.90;22.60;99512.00;;;;338943;28;91159;-93
2023/09/02 00:05:21;;;;;;;;;;;22.50;99.90;22.70;99508.00;;;;339073;28;94928;-93
2023/09/02 00:05:33;;;;;;;;;;;22.50;99.90;22.70;99506.00;;;;335002;29;91206;-93
2023/09/02 00:05:45;;;;;;;;;;;22.50;99.90;22.70;99510.00;;;;339091;28;96159;-93
2023/09/02 00:05:57;;;;;;;;;;;22.50;99.90;22.60;99519.00;;;;337504;28;91174;-93
2023/09/02 00:06:09;;;;;;;;;;;22.50;99.90;22.50;99515.00;;;;337693;28;95570;-93
2023/09/02 00:06:21;;;;;;;;;;;22.50;99.90;22.60;99512.00;;;;337565;28;91208;-93
2023/09/02 00:06:32;;;;;;;;;;;22.50;99.90;22.50;99513.00;;;;339138;28;94559;-93
2023/09/02 00:06:44;;;;;;;;;;;22.50;99.90;22.40;99511.00;;;;338845;28;91969;-93
2023/09/02 00:06:57;;;;;;;;;;;22.50;99.90;22.50;99514.00;;;;335094;29;96493;-93
2023/09/02 00:07:09;;;;;;;;;;;22.50;99.90;22.50;99510.00;;;;336017;28;92016;-93
2023/09/02 00:07:21;;;;;;;;;;;22.50;99.90;22.50;99510.00;;;;337543;28;96217;-93
2023/09/02 00:07:33;;;;;;;;;;;22.50;99.90;22.40;99510.00;;;;337462;28;91929;-92
2023/09/02 00:07:45;;;;;;;;;;;22.50;99.90;22.50;99512.00;;;;337733;28;96138;-93
2023/09/02 00:07:56;;;;;;;;;;;22.50;99.90;22.60;99517.00;;;;338758;28;91185;-92
2023/09/02 00:08:08;;;;;;;;;;;22.50;99.90;22.50;99516.00;;;;336426;28;96009;-93
2023/09/02 00:08:20;;;;;;;;;;;22.50;99.90;22.40;99513.00;;;;338673;28;90527;-93
2023/09/02 00:08:32;;;;;;;;;;;22.50;99.90;22.40;99511.00;;;;336391;28;95159;-93
2023/09/02 00:08:44;;;;;;;;;;;22.50;99.90;22.50;99506.00;;;;337314;28;91247;-93
2023/09/02 00:08:56;;;;;;;;;;;22.40;99.90;22.60;99513.00;;;;337735;28;95512;-93
2023/09/02 00:09:08;;;;;;;;;;;22.40;99.90;22.60;99500.00;;;;336227;28;92102;-93
2023/09/02 00:09:21;;;;;;;;;;;22.40;99.90;22.60;99513.00;;;;337538;28;96101;-92
2023/09/02 00:09:33;;;;;;;;;;;22.50;99.90;22.60;99509.00;;;;338821;28;91945;-93
2023/09/02 00:09:44;;;;;;;;;;;22.50;99.90;22.70;99507.00;;;;337763;28;96030;-92
2023/09/02 00:09:56;;;;;;;;;;;22.50;99.90;22.60;99511.00;;;;336012;28;92071;-93
2023/09/02 00:10:08;;;;;;;;;;;22.50;99.90;22.60;99512.00;;;;336402;28;95252;-93
2023/09/02 00:10:20;;;;;;;;;;;22.50;99.90;22.50;99511.00;;;;336185;28;91349;-93
2023/09/02 00:10:32;;;;;;;;;;;22.50;99.90;22.40;99510.00;;;;336566;28;92667;-93
2023/09/02 00:10:44;;;;;;;;;;;22.50;99.90;22.30;99507.00;;;;338735;28;92092;-93
2023/09/02 00:10:56;;;;;;;;;;;22.40;99.90;22.50;99510.00;;;;339064;28;95879;-93
2023/09/02 00:11:08;;;;;;;;;;;22.40;99.90;22.50;99515.00;;;;337608;28;91123;-93
2023/09/02 00:11:20;;;;;;;;;;;22.50;99.90;22.50;99511.00;;;;335047;29;94925;-93
2023/09/02 00:11:31;;;;;;;;;;;22.50;99.90;22.40;99506.00;;;;337458;28;91950;-94
2023/09/02 00:11:44;;;;;;;;;;;22.50;99.90;22.60;99513.00;;;;339119;28;94994;-93
2023/09/02 00:11:56;;;;;;;;;;;22.50;99.90;22.60;99516.00;;;;336162;28;91231;-93
2023/09/02 00:12:08;;;;;;;;;;;22.50;99.90;22.60;99516.00;;;;336310;28;96086;-93
2023/09/02 00:12:20;;;;;;;;;;;22.50;99.90;22.50;99512.00;;;;336150;28;91825;-93
2023/09/02 00:12:32;;;;;;;;;;;22.50;99.90;22.40;99518.00;;;;339083;28;94878;-93
2023/09/02 00:12:44;;;;;;;;;;;22.40;99.90;22.50;99523.00;;;;337428;28;92047;-93
2023/09/02 00:12:56;;;;;;;;;;;22.40;99.90;22.30;99515.00;;;;339005;28;96265;-93
2023/09/02 00:13:08;;;;;;;;;;;22.50;99.90;22.30;99517.00;;;;337510;28;91944;-93
2023/09/02 00:13:20;;;;;;;;;;;22.40;99.90;22.30;99514.00;;;;338959;28;95080;-93
2023/09/02 00:13:32;;;;;;;;;;;22.40;99.90;22.20;99523.00;;;;340061;28;92092;-92
2023/09/02 00:13:44;;;;;;;;;;;22.40;99.90;22.40;99513.00;;;;337818;28;94538;-94
2023/09/02 00:13:56;;;;;;;;;;;22.40;99.90;22.50;99520.00;;;;340065;28;91915;-93
2023/09/02 00:14:07;;;;;;;;;;;22.40;99.90;22.40;99511.00;;;;339003;28;94452;-93
2023/09/02 00:14:19;;;;;;;;;;;22.40;99.90;22.50;99516.00;;;;337563;28;90406;-94
2023/09/02 00:14:31;;;;;;;;;;;22.40;99.90;22.50;99519.00;;;;335135;29;95692;-93
2023/09/02 00:14:43;;;;;;;;;;;22.40;99.90;22.40;99512.00;;;;337406;28;91990;-93
2023/09/02 00:14:55;;;;;;;;;;;22.40;99.90;22.40;99509.00;;;;340398;28;96348;-93
2023/09/02 00:15:08;;;;;;;;;;;22.40;99.90;22.30;99516.00;;;;334856;29;91978;-93
2023/09/02 00:15:20;;;;;;;;;;;22.40;99.90;22.40;99512.00;;;;338978;28;94886;-93
2023/09/02 00:15:32;;;;;;;;;;;22.40;99.90;22.40;99514.00;;;;338870;28;91949;-93
2023/09/02 00:15:45;;;;;;;;;;;22.40;99.90;22.30;99511.00;;;;339040;28;95109;-93
2023/09/02 00:15:57;;;;;;;;;;;22.40;99.90;22.30;99511.00;;;;338779;28;91844;-94
2023/09/02 00:16:09;;;;;;;;;;;22.40;99.90;22.30;99516.00;;;;337686;28;94913;-92
2023/09/02 00:16:21;;;;;;;;;;;22.40;99.90;22.20;99523.00;;;;336216;28;91285;-93
2023/09/02 00:16:33;;;;;;;;;;;22.40;99.90;22.40;99510.00;;;;337709;28;95718;-93
2023/09/02 00:16:45;;;;;;;;;;;22.40;99.90;22.50;99526.00;;;;338754;28;92062;-92
2023/09/02 00:16:57;;;;;;;;;;;22.40;99.90;22.50;99516.00;;;;340410;28;94897;-93
2023/09/02 00:17:09;;;;;;;;;;;22.40;99.90;22.40;99510.00;;;;338832;28;91200;-94
2023/09/02 00:17:21;;;;;;;;;;;22.40;99.90;22.40;99514.00;;;;337549;28;95699;-93
2023/09/02 00:17:34;;;;;;;;;;;22.40;99.90;22.50;99521.00;;;;337539;28;91871;-93
2023/09/02 00:17:47;;;;;;;;;;;22.40;99.90;22.50;99516.00;;;;337732;28;95052;-93
2023/09/02 00:17:59;;;;;;;;;;;22.40;99.90;22.50;99514.00;;;;338755;28;92001;-93
2023/09/02 00:18:11;;;;;;;;;;;22.40;99.90;22.50;99518.00;;;;337800;28;94979;-93
2023/09/02 00:18:23;;;;;;;;;;;22.40;99.90;22.40;99519.00;;;;336189;28;91240;-93
2023/09/02 00:18:34;;;;;;;;;;;22.40;99.90;22.40;99519.00;;;;337672;28;94025;-92
2023/09/02 00:18:46;;;;;;;;;;;22.40;99.90;22.50;99516.00;;;;336214;28;91953;-93
2023/09/02 00:18:58;;;;;;;;;;;22.40;99.90;22.40;99515.00;;;;339153;28;94940;-93
2023/09/02 00:19:10;;;;;;;;;;;22.40;99.90;22.50;99522.00;;;;335989;28;92100;-93
2023/09/02 00:19:22;;;;;;;;;;;22.40;99.90;22.40;99512.00;;;;336351;28;94235;-93
2023/09/02 00:19:34;;;;;;;;;;;22.40;99.90;22.50;99516.00;;;;336245;28;91992;-93
2023/09/02 00:19:46;;;;;;;;;;;22.40;99.90;22.50;99516.00;;;;335296;29;94584;-93
2023/09/02 00:19:58;;;;;;;;;;;22.30;99.90;22.50;99514.00;;;;334756;29;92180;-93
2023/09/02 00:20:11;;;;;;;;;;;22.30;99.90;22.50;99515.00;;;;337831;28;95657;-93
2023/09/02 00:20:22;;;;;;;;;;;22.30;99.90;22.40;99518.00;;;;334778;29;91440;-93
2023/09/02 00:20:34;;;;;;;;;;;22.30;99.90;22.30;99515.00;;;;336464;28;93956;-94
2023/09/02 00:20:46;;;;;;;;;;;22.30;99.90;22.40;99507.00;;;;336218;28;92064;-94
2023/09/02 00:20:59;;;;;;;;;;;22.30;99.90;22.40;99514.00;;;;337811;28;95073;-93
2023/09/02 00:21:11;;;;;;;;;;;22.30;99.90;22.40;99519.00;;;;338908;28;91936;-93
2023/09/02 00:21:24;;;;;;;;;;;22.30;99.90;22.50;99519.00;;;;337600;28;95957;-93
2023/09/02 00:21:36;;;;;;;;;;;22.30;99.90;22.50;99521.00;;;;337577;28;91158;-93
2023/09/02 00:21:48;;;;;;;;;;;22.30;99.90;22.40;99512.00;;;;336432;28;95091;-93
2023/09/02 00:22:00;;;;;;;;;;;22.30;99.90;22.40;99513.00;;;;337392;28;92091;-93
2023/09/02 00:22:12;;;;;;;;;;;22.30;99.90;22.40;99514.00;;;;336429;28;96077;-93
2023/09/02 00:22:24;;;;;;;;;;;22.30;99.90;22.40;99521.00;;;;337501;28;91305;-93
2023/09/02 00:22:35;;;;;;;;;;;22.30;99.90;22.40;99522.00;;;;336387;28;93465;-93
2023/09/02 00:22:47;;;;;;;;;;;22.30;99.90;22.30;99511.00;;;;338734;28;92042;-93
2023/09/02 00:22:59;;;;;;;;;;;22.30;99.90;22.30;99517.00;;;;337755;28;93635;-93
2023/09/02 00:23:12;;;;;;;;;;;22.30;99.90;22.30;99510.00;;;;338792;28;91943;-93
2023/09/02 00:23:24;;;;;;;;;;;22.30;99.90;22.20;99511.00;;;;338816;28;94207;-93
2023/09/02 00:23:39;;;;;;;;;;;22.30;99.90;22.30;99517.00;;;;336187;28;91981;-93
2023/09/02 00:24:02;;;;;;;;;;;22.30;99.90;22.20;99517.00;;;;336417;28;94707;-93
2023/09/02 00:24:14;;;;;;;;;;;22.30;99.90;22.20;99517.00;;;;336205;28;92020;-93
2023/09/02 00:24:26;;;;;;;;;;;22.30;99.90;22.20;99519.00;;;;336323;28;95222;-93
2023/09/02 00:24:38;;;;;;;;;;;22.30;99.90;22.20;99511.00;;;;336103;28;91330;-93
2023/09/02 00:24:51;;;;;;;;;;;22.30;99.90;22.20;99519.00;;;;336482;28;94402;-93
2023/09/02 00:25:03;;;;;;;;;;;22.30;99.90;22.30;99514.00;;;;338818;28;91980;-94
2023/09/02 00:25:15;;;;;;;;;;;22.30;99.90;22.30;99515.00;;;;336259;28;94818;-92
2023/09/02 00:25:27;;;;;;;;;;;22.30;99.90;22.30;99518.00;;;;334775;29;92127;-93
2023/09/02 00:25:38;;;;;;;;;;;22.30;99.90;22.30;99510.00;;;;336413;28;95698;-93
2023/09/02 00:25:50;;;;;;;;;;;22.30;99.90;22.30;99513.00;;;;338774;28;91904;-94
2023/09/02 00:26:02;;;;;;;;;;;22.30;99.90;22.30;99510.00;;;;337665;28;96165;-93
2023/09/02 00:26:15;;;;;;;;;;;22.30;99.90;22.30;99527.00;;;;333647;29;91161;-93
2023/09/02 00:26:27;;;;;;;;;;;22.30;99.90;22.30;99513.00;;;;336457;28;92515;-92
2023/09/02 00:26:38;;;;;;;;;;;22.30;99.90;22.30;99514.00;;;;337442;28;90468;-93
2023/09/02 00:26:50;;;;;;;;;;;22.30;99.90;22.10;99520.00;;;;337646;28;90633;-93
2023/09/02 00:27:02;;;;;;;;;;;22.20;99.90;22.10;99515.00;;;;337568;28;91459;-93
2023/09/02 00:27:14;;;;;;;;;;;22.20;99.90;22.00;99516.00;;;;340553;28;93622;-93
2023/09/02 00:27:26;;;;;;;;;;;22.20;99.90;22.00;99519.00;;;;338847;28;91144;-93
2023/09/02 00:27:38;;;;;;;;;;;22.20;99.90;22.10;99519.00;;;;340453;28;95891;-93
2023/09/02 00:27:50;;;;;;;;;;;22.20;99.90;22.10;99514.00;;;;337608;28;91937;-93
2023/09/02 00:28:02;;;;;;;;;;;22.20;99.90;22.10;99518.00;;;;337633;28;96331;-93
2023/09/02 00:28:14;;;;;;;;;;;22.20;99.90;22.10;99521.00;;;;338886;28;92110;-94
2023/09/02 00:28:25;;;;;;;;;;;22.20;99.90;22.10;99521.00;;;;337794;28;95553;-92
2023/09/02 00:28:38;;;;;;;;;;;22.20;99.90;22.20;99515.00;;;;338863;28;91266;-93
2023/09/02 00:28:50;;;;;;;;;;;22.20;99.90;22.10;99518.00;;;;336539;28;93820;-92
2023/09/02 00:29:02;;;;;;;;;;;22.20;99.90;22.20;99517.00;;;;334958;29;92012;-92
2023/09/02 00:29:14;;;;;;;;;;;22.20;99.90;22.10;99515.00;;;;337849;28;95775;-92
2023/09/02 00:29:28;;;;;;;;;;;22.20;99.90;22.20;99512.00;;;;340163;28;91265;-93
2023/09/02 00:29:40;;;;;;;;;;;22.20;99.90;22.10;99517.00;;;;337828;28;94522;-93
2023/09/02 00:29:51;;;;;;;;;;;22.20;99.90;22.10;99520.00;;;;338814;28;91932;-92
2023/09/02 00:30:04;;;;;;;;;;;22.10;99.90;22.10;99529.00;;;;337809;28;95595;-93
2023/09/02 00:30:16;;;;;;;;;;;22.20;99.90;22.10;99512.00;;;;337466;28;92035;-92
2023/09/02 00:30:28;;;;;;;;;;;22.10;99.90;22.10;99517.00;;;;339056;28;95003;-94
2023/09/02 00:30:40;;;;;;;;;;;22.10;99.90;22.00;99517.00;;;;338719;28;91011;-93
2023/09/02 00:30:53;;;;;;;;;;;22.20;99.90;22.10;99511.00;;;;339070;28;95386;-93
2023/09/02 00:31:05;;;;;;;;;;;22.20;99.90;22.20;99514.00;;;;337475;28;91958;-93
2023/09/02 00:31:16;;;;;;;;;;;22.10;99.90;22.10;99511.00;;;;336399;28;96143;-93
2023/09/02 00:31:30;;;;;;;;;;;22.20;99.90;22.10;99515.00;;;;336168;28;92050;-93
2023/09/02 00:31:42;;;;;;;;;;;22.10;99.90;22.20;99516.00;;;;335057;29;95953;-93
2023/09/02 00:31:54;;;;;;;;;;;22.10;99.90;22.20;99519.00;;;;338806;28;91228;-93
2023/09/02 00:32:06;;;;;;;;;;;22.10;99.90;22.30;99516.00;;;;337624;28;96066;-93
2023/09/02 00:32:19;;;;;;;;;;;22.10;99.90;22.30;99520.00;;;;336144;28;91974;-93
2023/09/02 00:32:31;;;;;;;;;;;22.10;99.90;22.30;99507.00;;;;337708;28;94113;-93
2023/09/02 00:32:43;;;;;;;;;;;22.20;99.90;22.10;99520.00;;;;337257;28;91447;-93
2023/09/02 00:32:55;;;;;;;;;;;22.20;99.90;22.10;99514.00;;;;337869;28;94125;-93
2023/09/02 00:33:08;;;;;;;;;;;22.20;99.90;22.00;99513.00;;;;337538;28;91922;-93
2023/09/02 00:33:21;;;;;;;;;;;22.10;99.90;22.10;99513.00;;;;337608;28;96278;-93
2023/09/02 00:33:33;;;;;;;;;;;22.10;99.90;22.00;99515.00;;;;337490;28;92088;-93
2023/09/02 00:33:45;;;;;;;;;;;22.10;99.90;22.00;99520.00;;;;337745;28;94843;-94
2023/09/02 00:33:57;;;;;;;;;;;22.10;99.90;22.00;99514.00;;;;338809;28;92082;-94
2023/09/02 00:34:09;;;;;;;;;;;22.10;99.90;22.10;99516.00;;;;335195;29;95985;-92
2023/09/02 00:34:20;;;;;;;;;;;22.10;99.90;22.10;99508.00;;;;337583;28;91212;-93
2023/09/02 00:34:32;;;;;;;;;;;22.10;99.90;22.10;99518.00;;;;339005;28;95414;-94
2023/09/02 00:34:46;;;;;;;;;;;22.10;99.90;22.00;99518.00;;;;336262;28;90384;-92
2023/09/02 00:34:58;;;;;;;;;;;22.10;99.90;21.90;99513.00;;;;337840;28;95333;-94
2023/09/02 00:35:10;;;;;;;;;;;22.10;99.90;21.90;99511.00;;;;338823;28;91944;-93
2023/09/02 00:35:22;;;;;;;;;;;22.10;99.90;21.90;99509.00;;;;338910;28;95113;-93
2023/09/02 00:35:33;;;;;;;;;;;22.10;99.90;21.90;99512.00;;;;337509;28;91240;-93
2023/09/02 00:35:45;;;;;;;;;;;22.10;99.90;22.00;99518.00;;;;336466;28;95265;-92
2023/09/02 00:35:57;;;;;;;;;;;22.10;99.90;22.10;99516.00;;;;334968;29;92042;-92
2023/09/02 00:36:09;;;;;;;;;;;22.10;99.90;22.00;99520.00;;;;337833;28;96163;-93
2023/09/02 00:36:21;;;;;;;;;;;22.10;99.90;22.00;99512.00;;;;337640;28;91246;-93
2023/09/02 00:36:33;;;;;;;;;;;22.10;99.90;22.10;99520.00;;;;337799;28;96516;-93
2023/09/02 00:36:44;;;;;;;;;;;22.10;99.90;22.10;99516.00;;;;336310;28;91403;-93
2023/09/02 00:36:56;;;;;;;;;;;22.10;99.90;22.10;99514.00;;;;336752;28;94271;-92
2023/09/02 00:37:08;;;;;;;;;;;22.10;99.90;22.10;99524.00;;;;337837;28;92097;-93
2023/09/02 00:37:20;;;;;;;;;;;22.10;99.90;22.10;99510.00;;;;339127;28;94550;-93
2023/09/02 00:37:32;;;;;;;;;;;22.10;99.90;22.00;99516.00;;;;337726;28;91176;-92
2023/09/02 00:37:44;;;;;;;;;;;22.10;99.90;22.10;99515.00;;;;337989;28;94545;-93
2023/09/02 00:37:58;;;;;;;;;;;22.10;99.90;22.10;99512.00;;;;339139;28;91162;-92
2023/09/02 00:38:10;;;;;;;;;;;22.10;99.90;22.00;99507.00;;;;336935;28;95574;-93
2023/09/02 00:38:22;;;;;;;;;;;22.10;99.90;22.00;99507.00;;;;336545;28;91253;-93
2023/09/02 00:38:34;;;;;;;;;;;22.10;99.90;21.90;99507.00;;;;337139;28;96286;-93
2023/09/02 00:38:45;;;;;;;;;;;22.10;99.90;21.90;99510.00;;;;336660;28;91291;-93
2023/09/02 00:38:58;;;;;;;;;;;22.10;99.90;21.90;99505.00;;;;339671;28;95097;-92
2023/09/02 00:39:10;;;;;;;;;;;22.00;99.90;22.00;99504.00;;;;339252;28;90973;-92
2023/09/02 00:39:22;;;;;;;;;;;22.00;99.90;22.10;99508.00;;;;338246;28;94913;-92
2023/09/02 00:39:34;;;;;;;;;;;22.10;99.90;22.10;99502.00;;;;339402;28;90980;-94
2023/09/02 00:39:46;;;;;;;;;;;22.00;99.90;22.10;99505.00;;;;340974;28;94470;-92
2023/09/02 00:39:57;;;;;;;;;;;22.00;99.90;22.10;99506.00;;;;340514;28;90999;-91
2023/09/02 00:40:12;;;;;;;;;;;22.00;99.90;22.20;99505.00;;;;342130;28;93701;-93
2023/09/02 00:40:24;;;;;;;;;;;22.10;99.90;22.20;99500.00;;;;340652;28;91185;-92
2023/09/02 00:40:36;;;;;;;;;;;22.00;99.90;22.10;99505.00;;;;340679;28;94159;-93
2023/09/02 00:40:51;;;;;;;;;;;22.00;99.90;22.10;99505.00;;;;340284;28;90491;-91
2023/09/02 00:41:03;;;;;;;;;;;22.10;99.90;22.10;99508.00;;;;338157;28;93443;-92
2023/09/02 00:41:43;;;;;;;;;;;22.00;99.90;22.10;99514.00;;;;339233;28;91132;-93
2023/09/02 00:41:55;;;;;;;;;;;22.10;99.90;22.10;99509.00;;;;339231;28;94266;-93
2023/09/02 00:42:09;;;;;;;;;;;22.00;99.90;22.10;99505.00;;;;339237;28;91024;-93
2023/09/02 00:42:22;;;;;;;;;;;22.00;99.90;22.00;99502.00;;;;340544;28;94540;-93
2023/09/02 00:42:33;;;;;;;;;;;22.00;99.90;22.10;99505.00;;;;340015;28;91114;-93
2023/09/02 00:42:45;;;;;;;;;;;22.00;99.90;22.10;99511.00;;;;337677;28;94734;-92
2023/09/02 00:42:57;;;;;;;;;;;22.00;99.90;22.10;99507.00;;;;336689;28;91937;-93
2023/09/02 00:43:09;;;;;;;;;;;22.00;99.90;22.10;99503.00;;;;337819;28;96239;-93
2023/09/02 00:43:21;;;;;;;;;;;22.00;99.90;22.20;99508.00;;;;337534;28;91312;-93
2023/09/02 00:43:33;;;;;;;;;;;22.00;99.90;22.10;99501.00;;;;337864;28;95520;-93
2023/09/02 00:43:45;;;;;;;;;;;22.00;99.90;22.00;99506.00;;;;338691;28;92168;-93
2023/09/02 00:43:56;;;;;;;;;;;22.00;99.90;21.90;99508.00;;;;338756;28;95010;-93
2023/09/02 00:44:08;;;;;;;;;;;22.00;99.90;22.00;99502.00;;;;336051;28;92068;-93
2023/09/02 00:44:20;;;;;;;;;;;22.00;99.90;22.10;99506.00;;;;336051;28;94955;-94
2023/09/02 00:44:34;;;;;;;;;;;22.00;99.90;22.10;99508.00;;;;338836;28;91342;-93
2023/09/02 00:44:47;;;;;;;;;;;22.00;99.90;22.10;99504.00;;;;337575;28;93812;-93
2023/09/02 00:44:59;;;;;;;;;;;22.00;99.90;22.10;99514.00;;;;337461;28;92035;-93
2023/09/02 00:45:10;;;;;;;;;;;22.00;99.90;22.00;99513.00;;;;336453;28;95018;-93
2023/09/02 00:45:23;;;;;;;;;;;22.00;99.90;22.10;99509.00;;;;334596;29;91603;-94
2023/09/02 00:45:35;;;;;;;;;;;22.00;99.90;22.00;99501.00;;;;336398;28;94278;-93
2023/09/02 00:45:47;;;;;;;;;;;22.00;99.90;22.00;99512.00;;;;337370;28;92269;-92
2023/09/02 00:45:59;;;;;;;;;;;22.00;99.90;22.10;99510.00;;;;337691;28;94607;-93
2023/09/02 00:46:11;;;;;;;;;;;22.00;99.90;22.20;99513.00;;;;337502;28;92049;-93
2023/09/02 00:46:23;;;;;;;;;;;22.00;99.90;22.20;99511.00;;;;336463;28;95497;-93
2023/09/02 00:46:35;;;;;;;;;;;22.00;99.90;22.20;99514.00;;;;338777;28;91985;-93
2023/09/02 00:46:47;;;;;;;;;;;22.00;99.90;22.10;99511.00;;;;336362;28;95798;-93
2023/09/02 00:46:59;;;;;;;;;;;22.00;99.90;22.00;99513.00;;;;334799;29;91182;-93
2023/09/02 00:47:11;;;;;;;;;;;22.00;99.90;22.10;99514.00;;;;336374;28;95447;-92
2023/09/02 00:47:23;;;;;;;;;;;22.00;99.90;22.10;99517.00;;;;338725;28;91334;-92
2023/09/02 00:47:35;;;;;;;;;;;22.00;99.90;22.10;99519.00;;;;339043;28;94896;-94
2023/09/02 00:47:49;;;;;;;;;;;22.00;99.90;22.00;99511.00;;;;338686;28;92084;-93
2023/09/02 00:48:02;;;;;;;;;;;22.00;99.90;22.00;99519.00;;;;336305;28;93749;-93
2023/09/02 00:48:14;;;;;;;;;;;22.00;99.90;22.10;99514.00;;;;336024;28;92346;-93
2023/09/02 00:48:26;;;;;;;;;;;22.00;99.90;22.00;99521.00;;;;337579;28;95938;-92
2023/09/02 00:48:38;;;;;;;;;;;22.00;99.90;22.00;99517.00;;;;341425;28;91901;-93
2023/09/02 00:48:50;;;;;;;;;;;22.00;99.90;22.00;99520.00;;;;340265;28;95819;-92
2023/09/02 00:49:02;;;;;;;;;;;22.00;99.90;22.00;99517.00;;;;338658;28;92243;-93
2023/09/02 00:49:14;;;;;;;;;;;22.00;99.90;22.10;99516.00;;;;336226;28;93969;-93
2023/09/02 00:49:26;;;;;;;;;;;22.00;99.90;22.00;99517.00;;;;336082;28;91286;-93
2023/09/02 00:49:38;;;;;;;;;;;22.00;99.90;22.00;99524.00;;;;336487;28;92860;-93
2023/09/02 00:49:50;;;;;;;;;;;22.00;99.90;22.00;99519.00;;;;337519;28;91958;-93
2023/09/02 00:50:02;;;;;;;;;;;22.00;99.90;22.00;99521.00;;;;338690;28;95210;-93
2023/09/02 00:50:14;;;;;;;;;;;22.00;99.90;22.00;99510.00;;;;336191;28;91930;-93
2023/09/02 00:50:31;;;;;;;;;;;22.00;99.90;22.00;99521.00;;;;338840;28;95096;-93
2023/09/02 00:50:43;;;;;;;;;;;22.00;99.90;22.00;99519.00;;;;336147;28;92104;-93
2023/09/02 00:50:55;;;;;;;;;;;22.00;99.90;22.10;99522.00;;;;337593;28;96114;-93
2023/09/02 00:51:08;;;;;;;;;;;22.00;99.90;22.00;99516.00;;;;340211;28;91134;-93
2023/09/02 00:51:20;;;;;;;;;;;22.00;99.90;21.90;99517.00;;;;337358;28;95385;-93
2023/09/02 00:51:32;;;;;;;;;;;21.90;99.90;21.80;99522.00;;;;337605;28;91241;-93
2023/09/02 00:51:44;;;;;;;;;;;21.90;99.90;21.80;99521.00;;;;336430;28;94446;-93
2023/09/02 00:51:56;;;;;;;;;;;21.90;99.90;21.90;99523.00;;;;336136;28;92233;-93
2023/09/02 00:52:08;;;;;;;;;;;21.90;99.90;21.90;99521.00;;;;337843;28;96228;-93
2023/09/02 00:52:20;;;;;;;;;;;21.90;99.90;21.80;99518.00;;;;336065;28;92004;-93
2023/09/02 00:52:33;;;;;;;;;;;21.90;99.90;21.90;99520.00;;;;337660;28;95726;-93
2023/09/02 00:52:46;;;;;;;;;;;21.90;99.90;22.00;99528.00;;;;334808;29;91173;-93
2023/09/02 00:52:59;;;;;;;;;;;21.90;99.90;21.90;99516.00;;;;337614;28;94802;-93
2023/09/02 00:53:10;;;;;;;;;;;21.90;99.90;21.90;99522.00;;;;336145;28;92147;-93
2023/09/02 00:53:24;;;;;;;;;;;21.90;99.90;22.00;99515.00;;;;338921;28;94163;-92
2023/09/02 00:53:36;;;;;;;;;;;21.90;99.90;22.00;99515.00;;;;337554;28;91338;-92
2023/09/02 00:53:48;;;;;;;;;;;21.90;99.90;22.00;99516.00;;;;337782;28;95056;-93
2023/09/02 00:54:00;;;;;;;;;;;21.90;99.90;21.90;99509.00;;;;336087;28;91270;-93
2023/09/02 00:54:12;;;;;;;;;;;21.90;99.90;21.90;99516.00;;;;337733;28;95849;-93
2023/09/02 00:54:26;;;;;;;;;;;21.90;99.90;21.90;99518.00;;;;334773;29;91167;-92
2023/09/02 00:54:38;;;;;;;;;;;21.90;99.90;21.90;99516.00;;;;337690;28;94940;-93
2023/09/02 00:54:49;;;;;;;;;;;21.90;99.90;21.90;99519.00;;;;336107;28;92093;-93
2023/09/02 00:55:01;;;;;;;;;;;21.90;99.90;21.90;99513.00;;;;335005;29;96472;-92
2023/09/02 00:55:14;;;;;;;;;;;21.90;99.90;22.00;99524.00;;;;337508;28;91922;-93
2023/09/02 00:55:29;;;;;;;;;;;21.90;99.90;22.00;99521.00;;;;337587;28;96222;-92
2023/09/02 00:55:40;;;;;;;;;;;21.90;99.90;22.00;99528.00;;;;334809;29;91291;-93
2023/09/02 00:55:52;;;;;;;;;;;21.90;99.90;21.90;99520.00;;;;336359;28;95277;-93
2023/09/02 00:56:04;;;;;;;;;;;21.90;99.90;21.90;99520.00;;;;340139;28;91168;-93
2023/09/02 00:56:16;;;;;;;;;;;21.90;99.90;21.80;99517.00;;;;337744;28;95682;-93
2023/09/02 00:56:28;;;;;;;;;;;21.90;99.90;21.90;99514.00;;;;337511;28;92022;-92
2023/09/02 00:56:40;;;;;;;;;;;21.90;99.90;22.00;99522.00;;;;334978;29;95892;-93
2023/09/02 00:56:52;;;;;;;;;;;21.90;99.90;22.00;99525.00;;;;337386;28;91193;-93
2023/09/02 00:57:04;;;;;;;;;;;21.90;99.90;22.00;99526.00;;;;336466;28;95771;-93
2023/09/02 00:57:16;;;;;;;;;;;21.90;99.90;21.90;99513.00;;;;336132;28;91996;-93
2023/09/02 00:57:28;;;;;;;;;;;21.90;99.90;21.80;99526.00;;;;338876;28;96115;-93
2023/09/02 00:57:40;;;;;;;;;;;21.90;99.90;21.90;99515.00;;;;336084;28;90482;-92
2023/09/02 00:57:52;;;;;;;;;;;21.90;99.90;21.90;99520.00;;;;335143;29;95378;-93
2023/09/02 00:58:04;;;;;;;;;;;21.90;99.90;21.90;99516.00;;;;340006;28;92083;-93
2023/09/02 00:58:16;;;;;;;;;;;21.90;99.90;21.90;99525.00;;;;340494;28;95560;-93
2023/09/02 00:58:28;;;;;;;;;;;21.90;99.90;22.00;99523.00;;;;338555;28;92122;-93
2023/09/02 00:58:40;;;;;;;;;;;21.90;99.90;22.00;99517.00;;;;338747;28;96204;-93
2023/09/02 00:58:58;;;;;;;;;;;21.90;99.90;21.90;99524.00;;;;338791;28;92053;-93
2023/09/02 00:59:09;;;;;;;;;;;21.90;99.90;22.00;99525.00;;;;337776;28;95848;-93
2023/09/02 00:59:22;;;;;;;;;;;21.90;99.90;22.00;99518.00;;;;334753;29;92042;-92
2023/09/02 00:59:34;;;;;;;;;;;21.90;99.90;21.90;99520.00;;;;336505;28;96156;-93
2023/09/02 00:59:46;;;;;;;;;;;21.90;99.90;21.80;99523.00;;;;337507;28;91307;-93
2023/09/02 00:59:58;;;;;;;;;;;21.90;99.90;21.80;99519.00;;;;338974;28;93713;-93
2023/09/02 01:00:13;;;;;;;;;;;21.90;99.90;21.90;99525.00;;;;334886;29;92075;-93
2023/09/02 01:00:25;;;;;;;;;;;21.80;99.90;21.90;99516.00;;;;336455;28;94652;-93
2023/09/02 01:00:37;;;;;;;;;;;21.90;99.90;22.00;99525.00;;;;338732;28;91910;-93
2023/09/02 01:00:49;;;;;;;;;;;21.90;99.90;21.90;99506.00;;;;333740;29;95556;-92